Time;durP1;ratioP1;P1;durP2;ratioP2;P2;SDS_P1;SDS_P2;PMS_P1;PMS_P2;Temp;Humidity;BMP_temperature;BMP_pressure;BME280_temperature;BME280_humidity;BME280_pressure;Samples;Min_cycle;Max_cycle;Signal;HPM_P1;HPM_P2
2021/07/14 00:01:21;;;;;;;6.32;1.75;;;;;;;15.64;82.15;99322.53;2208190;40;20034;-82
2021/07/14 00:02:53;;;;;;;5.57;2.00;;;;;;;15.65;82.46;99318.78;2208479;40;20046;-83
2021/07/14 00:04:26;;;;;;;6.70;1.80;;;;;;;15.66;82.55;99315.09;2208857;40;20049;-83
2021/07/14 00:05:58;;;;;;;3.58;1.90;;;;;;;15.69;82.24;99313.84;2208364;40;20084;-82
2021/07/14 00:07:29;;;;;;;5.47;2.40;;;;;;;15.64;82.25;99306.34;2208710;40;20076;-83
2021/07/14 00:09:07;;;;;;;9.48;2.35;;;;;;;15.64;82.65;99311.75;2208564;40;20019;-83
2021/07/14 00:10:39;;;;;;;7.25;2.10;;;;;;;15.60;82.58;99311.31;2208398;40;20163;-82
2021/07/14 00:12:11;;;;;;;6.82;1.85;;;;;;;15.61;82.83;99312.13;2208450;40;20027;-83
2021/07/14 00:14:01;;;;;;;4.90;1.70;;;;;;;15.62;82.75;99308.41;2208072;40;20038;-83
2021/07/14 00:17:42;;;;;;;6.90;2.40;;;;;;;15.59;82.67;99292.63;2209927;40;20030;-82
2021/07/14 00:22:56;;;;;;;5.45;2.13;;;;;;;15.62;82.62;99276.06;2209627;40;20038;-82
2021/07/14 00:24:28;;;;;;;8.02;2.13;;;;;;;15.63;82.51;99276.94;2209135;40;20038;-83
2021/07/14 00:25:59;;;;;;;11.10;2.20;;;;;;;15.64;82.58;99268.63;2210066;40;20021;-83
2021/07/14 00:27:30;;;;;;;5.35;2.10;;;;;;;15.70;82.55;99270.53;2210211;40;20030;-84
2021/07/14 00:29:11;;;;;;;8.70;2.17;;;;;;;15.77;82.33;99269.75;2209476;40;20023;-83
2021/07/14 00:30:50;;;;;;;7.10;2.28;;;;;;;15.79;82.05;99275.75;2209495;40;20172;-84
2021/07/14 00:32:22;;;;;;;5.60;1.98;;;;;;;15.81;82.11;99273.72;2208758;40;20038;-84
2021/07/14 00:33:53;;;;;;;3.78;1.60;;;;;;;15.87;81.76;99287.25;2209392;40;20026;-81
2021/07/14 00:35:24;;;;;;;6.82;3.35;;;;;;;15.93;81.63;99291.03;2209218;40;20034;-82
2021/07/14 00:36:58;;;;;;;5.75;3.45;;;;;;;15.92;81.50;99292.06;2209642;40;20283;-83
2021/07/14 00:38:29;;;;;;;7.88;4.05;;;;;;;15.94;81.76;99290.00;2209596;40;20029;-83
2021/07/14 00:40:01;;;;;;;5.28;2.60;;;;;;;15.95;81.57;99283.59;2209788;40;20387;-82
2021/07/14 00:41:33;;;;;;;9.68;2.70;;;;;;;15.97;81.42;99286.06;2209243;40;20042;-83
2021/07/14 00:43:04;;;;;;;5.38;2.38;;;;;;;15.97;81.41;99280.69;2209039;40;20174;-82
2021/07/14 00:44:36;;;;;;;5.47;2.28;;;;;;;16.03;81.11;99275.34;2208830;40;20171;-83
2021/07/14 00:46:29;;;;;;;5.18;1.77;;;;;;;16.06;80.96;99277.63;2208766;40;20034;-81
2021/07/14 00:48:02;;;;;;;6.15;2.67;;;;;;;16.06;81.11;99288.41;2211401;40;20041;-86
2021/07/14 00:49:34;;;;;;;5.43;2.35;;;;;;;16.09;80.94;99291.72;2222565;40;20018;-84
2021/07/14 00:51:06;;;;;;;6.60;2.22;;;;;;;16.12;81.09;99300.25;2215915;40;20609;-86
2021/07/14 00:52:40;;;;;;;3.88;1.48;;;;;;;16.18;80.85;99298.63;2222302;40;20021;-87
2021/07/14 00:54:11;;;;;;;4.45;2.50;;;;;;;16.23;80.55;99298.88;2221725;40;20034;-85
2021/07/14 00:55:43;;;;;;;4.03;2.28;;;;;;;16.21;80.47;99290.13;2209169;40;20042;-87
2021/07/14 00:57:16;;;;;;;6.60;3.45;;;;;;;16.19;80.43;99286.81;2209407;40;20027;-82
2021/07/14 00:58:47;;;;;;;5.80;2.60;;;;;;;16.17;80.32;99295.09;2208877;40;20038;-82
2021/07/14 01:00:20;;;;;;;6.65;1.98;;;;;;;16.18;80.71;99295.94;2208986;40;20311;-82
2021/07/14 01:01:52;;;;;;;4.07;1.92;;;;;;;16.22;80.31;99279.16;2208804;40;20089;-81
2021/07/14 01:03:25;;;;;;;6.32;2.22;;;;;;;16.26;80.31;99270.66;2208851;40;20046;-82
2021/07/14 01:05:02;;;;;;;6.43;2.53;;;;;;;16.27;80.30;99273.16;2209869;40;20042;-86
2021/07/14 01:06:44;;;;;;;5.40;2.60;;;;;;;16.28;80.18;99269.41;2209932;40;20042;-86
2021/07/14 01:08:27;;;;;;;5.35;2.38;;;;;;;16.27;80.20;99262.38;2210125;40;20035;-87
2021/07/14 01:10:04;;;;;;;4.65;1.90;;;;;;;16.30;79.82;99271.91;2209863;40;20043;-85
2021/07/14 01:11:38;;;;;;;4.47;2.10;;;;;;;16.32;80.10;99276.09;2210167;40;20039;-86
2021/07/14 01:13:13;;;;;;;6.30;2.15;;;;;;;16.34;79.97;99282.09;2209468;40;20042;-82
2021/07/14 01:14:50;;;;;;;5.70;1.95;;;;;;;16.34;79.92;99279.41;2208851;40;20062;-81
2021/07/14 01:16:26;;;;;;;4.30;2.05;;;;;;;16.38;79.65;99286.06;2208609;40;20030;-84
2021/07/14 01:18:01;;;;;;;7.32;2.05;;;;;;;16.42;79.45;99277.59;2209240;40;20037;-83
2021/07/14 01:19:50;;;;;;;4.60;1.73;;;;;;;16.43;79.56;99271.16;2209221;40;20031;-86
2021/07/14 01:21:28;;;;;;;5.13;2.10;;;;;;;16.44;79.12;99278.19;2208603;40;20038;-84
2021/07/14 01:23:07;;;;;;;3.90;2.03;;;;;;;16.42;79.35;99277.59;2207707;40;20151;-84
2021/07/14 01:24:49;;;;;;;6.65;2.80;;;;;;;16.41;79.64;99278.63;2208900;40;20030;-84
2021/07/14 01:26:37;;;;;;;6.28;2.20;;;;;;;16.40;79.25;99266.16;2209045;40;20034;-82
2021/07/14 01:28:11;;;;;;;5.65;2.13;;;;;;;16.42;79.42;99269.50;2209161;40;20039;-85
2021/07/14 01:29:46;;;;;;;5.57;2.15;;;;;;;16.42;79.41;99275.69;2207265;40;20042;-84
2021/07/14 01:31:20;;;;;;;6.78;1.80;;;;;;;16.42;79.34;99285.69;2207244;40;20042;-86
2021/07/14 01:32:53;;;;;;;4.18;2.00;;;;;;;16.41;79.53;99292.91;2206884;40;20038;-84
2021/07/14 01:34:27;;;;;;;4.78;1.90;;;;;;;16.41;79.41;99310.97;2208561;40;20022;-86
2021/07/14 01:36:02;;;;;;;5.95;1.98;;;;;;;16.38;79.29;99315.72;2209141;40;20456;-85
2021/07/14 01:37:35;;;;;;;6.18;2.10;;;;;;;16.40;79.41;99320.09;2209233;40;20088;-85
2021/07/14 01:39:07;;;;;;;4.10;1.65;;;;;;;16.40;79.15;99309.31;2208884;40;20030;-87
2021/07/14 01:40:41;;;;;;;4.50;2.00;;;;;;;16.41;78.96;99308.28;2210515;40;20573;-86
2021/07/14 01:42:15;;;;;;;3.60;2.10;;;;;;;16.41;79.31;99316.38;2204007;40;20027;-86
2021/07/14 01:43:53;;;;;;;6.43;2.20;;;;;;;16.44;79.38;99315.94;2203864;40;20642;-87
2021/07/14 01:45:28;;;;;;;4.88;1.70;;;;;;;16.41;78.97;99327.97;2203004;40;20027;-84
2021/07/14 01:47:01;;;;;;;3.90;1.90;;;;;;;16.45;79.16;99336.50;2197921;40;20043;-85
2021/07/14 01:48:36;;;;;;;5.93;2.63;;;;;;;16.46;78.96;99346.25;2208118;40;20068;-84
2021/07/14 01:50:09;;;;;;;4.35;2.28;;;;;;;16.45;78.87;99344.59;2208100;40;20046;-82
2021/07/14 01:51:46;;;;;;;5.32;2.00;;;;;;;16.44;78.87;99341.06;2209368;40;20042;-86
2021/07/14 01:53:20;;;;;;;3.63;1.55;;;;;;;16.40;79.04;99338.97;2209524;40;20022;-86
2021/07/14 01:54:54;;;;;;;7.82;2.20;;;;;;;16.36;79.24;99325.88;2209776;40;20034;-86
2021/07/14 01:56:28;;;;;;;6.97;2.60;;;;;;;16.34;79.14;99332.53;2210680;40;20052;-86
2021/07/14 01:58:02;;;;;;;4.30;2.15;;;;;;;16.29;79.45;99321.50;2211256;40;20168;-85
2021/07/14 01:59:38;;;;;;;3.65;1.70;;;;;;;16.31;79.23;99320.28;2211614;40;20038;-86
2021/07/14 02:01:12;;;;;;;4.25;1.65;;;;;;;16.31;79.57;99320.28;2210543;40;20085;-85
2021/07/14 02:02:52;;;;;;;6.38;2.78;;;;;;;16.32;79.42;99324.63;2210442;40;20026;-86
2021/07/14 02:04:32;;;;;;;5.47;2.80;;;;;;;16.33;79.31;99331.69;2210732;40;20148;-85
2021/07/14 02:06:06;;;;;;;6.93;2.10;;;;;;;16.29;79.33;99338.50;2210728;40;20030;-86
2021/07/14 02:07:38;;;;;;;4.30;2.45;;;;;;;16.22;79.38;99338.47;2210669;40;20027;-86
2021/07/14 02:09:11;;;;;;;5.05;2.90;;;;;;;16.13;79.68;99336.16;2210636;40;20560;-86
2021/07/14 02:10:46;;;;;;;5.75;2.95;;;;;;;16.05;80.11;99346.06;2210764;40;20054;-86
2021/07/14 02:12:19;;;;;;;6.07;2.80;;;;;;;15.98;80.25;99345.16;2210928;40;20103;-86
2021/07/14 02:15:27;;;;;;;5.53;2.85;;;;;;;15.97;80.58;99338.09;2209956;40;19956;-85
2021/07/14 02:17:14;;;;;;;5.45;2.42;;;;;;;15.95;80.67;99340.19;2204754;40;20030;-85
2021/07/14 02:19:19;;;;;;;4.68;2.20;;;;;;;15.89;80.63;99335.56;2204792;40;20105;-84
2021/07/14 03:05:39;;;;;;;5.93;2.40;;;;;;;15.34;82.15;99292.25;2202502;40;20051;-80
2021/07/14 03:07:13;;;;;;;7.07;2.60;;;;;;;15.33;82.24;99293.25;2197497;40;20304;-80
2021/07/14 03:08:48;;;;;;;7.15;2.40;;;;;;;15.29;81.94;99288.25;2193933;40;20039;-80
2021/07/14 03:10:21;;;;;;;6.18;2.05;;;;;;;15.29;82.11;99292.81;2196967;40;20047;-80
2021/07/14 03:11:53;;;;;;;4.80;2.13;;;;;;;15.24;82.20;99303.31;2196785;40;20058;-79
2021/07/14 03:13:29;;;;;;;8.48;2.53;;;;;;;15.20;82.25;99302.06;2196801;40;20130;-81
2021/07/14 03:15:05;;;;;;;4.47;2.05;;;;;;;15.28;82.34;99307.31;2195619;40;20040;-79
2021/07/14 03:16:57;;;;;;;6.38;2.25;;;;;;;15.38;81.77;99307.81;2196194;40;20042;-80
2021/07/14 03:18:32;;;;;;;9.00;2.55;;;;;;;15.40;81.49;99313.00;2196188;40;20047;-81
2021/07/14 03:20:23;;;;;;;5.35;2.40;;;;;;;15.46;81.38;99320.28;2195954;40;20050;-80
2021/07/14 03:22:08;;;;;;;6.05;2.22;;;;;;;15.52;81.34;99316.00;2196068;40;20036;-80
2021/07/14 03:23:47;;;;;;;4.15;1.90;;;;;;;15.53;81.40;99312.28;2197195;40;20039;-80
2021/07/14 03:25:22;;;;;;;4.95;2.10;;;;;;;15.58;81.06;99321.44;2195532;40;20036;-80
2021/07/14 03:27:02;;;;;;;6.13;1.92;;;;;;;15.62;80.96;99324.56;2195688;40;20038;-80
2021/07/14 03:28:47;;;;;;;3.05;1.50;;;;;;;15.61;80.48;99333.69;2195335;40;20426;-80
2021/07/14 03:30:32;;;;;;;5.45;1.50;;;;;;;15.63;80.47;99328.94;2195619;40;20419;-80
2021/07/14 03:32:22;;;;;;;4.57;1.40;;;;;;;15.69;80.32;99330.84;2195562;40;20126;-82
2021/07/14 03:33:54;;;;;;;7.87;2.27;;;;;;;15.69;80.05;99325.44;2197203;40;20048;-81
2021/07/14 03:35:25;;;;;;;9.82;1.92;;;;;;;15.71;79.95;99326.09;2197710;40;20270;-80
2021/07/14 03:37:35;;;;;;;4.20;1.63;;;;;;;15.70;79.97;99313.63;2197484;40;20035;-80
2021/07/14 03:39:22;;;;;;;7.03;1.50;;;;;;;15.72;79.83;99302.69;2198991;40;20042;-81
2021/07/14 03:40:55;;;;;;;4.85;1.55;;;;;;;15.74;79.87;99309.53;2197142;40;20259;-81
2021/07/14 03:42:27;;;;;;;4.65;1.70;;;;;;;15.77;79.43;99310.19;2197378;40;20102;-80
2021/07/14 03:43:58;;;;;;;5.20;2.00;;;;;;;15.78;79.68;99311.81;2196445;40;20035;-80
2021/07/14 03:45:32;;;;;;;10.25;2.50;;;;;;;15.73;79.47;99309.72;2196048;40;20039;-81
2021/07/14 03:47:31;;;;;;;7.13;2.58;;;;;;;15.62;79.73;99316.50;2198175;40;20026;-82
2021/07/14 03:49:04;;;;;;;7.10;2.58;;;;;;;15.54;79.94;99325.53;2195220;40;20039;-79
2021/07/14 03:50:38;;;;;;;7.63;2.10;;;;;;;15.49;79.76;99317.22;2195215;40;20039;-80
2021/07/14 03:52:10;;;;;;;5.13;2.72;;;;;;;15.44;80.24;99323.19;2194610;40;20036;-80
2021/07/14 03:53:43;;;;;;;5.35;2.70;;;;;;;15.39;80.45;99331.03;2193214;40;20591;-79
2021/07/14 03:55:16;;;;;;;6.95;2.45;;;;;;;15.36;80.42;99339.50;2194612;40;20042;-79
2021/07/14 03:56:47;;;;;;;6.32;2.00;;;;;;;15.35;80.11;99332.44;2194761;40;20047;-80
2021/07/14 03:58:21;;;;;;;7.93;2.40;;;;;;;15.35;80.52;99337.81;2194926;40;20046;-80
2021/07/14 03:59:53;;;;;;;8.95;3.30;;;;;;;15.39;80.40;99351.72;2197291;40;20023;-80
2021/07/14 04:01:24;;;;;;;6.20;2.22;;;;;;;15.43;80.02;99345.75;2207185;40;20051;-81
2021/07/14 04:02:58;;;;;;;8.60;2.55;;;;;;;15.50;80.14;99345.81;2201138;40;20111;-81
2021/07/14 04:04:29;;;;;;;5.75;2.78;;;;;;;15.50;80.05;99350.34;2198778;40;20030;-81
2021/07/14 04:06:02;;;;;;;4.78;2.60;;;;;;;15.43;79.94;99348.44;2197048;40;20050;-81
2021/07/14 04:07:35;;;;;;;7.65;2.80;;;;;;;15.35;80.33;99351.28;2187834;40;20028;-81
2021/07/14 04:09:26;;;;;;;7.85;2.72;;;;;;;15.32;80.54;99346.28;2185505;40;20032;-81
2021/07/14 04:10:56;;;;;;;7.70;2.40;;;;;;;15.29;80.65;99350.19;2197925;40;20254;-81
2021/07/14 04:12:30;;;;;;;8.60;2.15;;;;;;;15.29;80.80;99347.50;2192071;40;20692;-81
2021/07/14 04:14:01;;;;;;;6.15;2.20;;;;;;;15.34;80.79;99338.84;2179598;40;20044;-81
2021/07/14 04:15:34;;;;;;;7.80;2.47;;;;;;;15.40;80.71;99338.06;2179293;40;20088;-81
2021/07/14 04:17:06;;;;;;;5.20;2.05;;;;;;;15.41;80.30;99333.53;2167278;41;20034;-79
2021/07/14 04:18:37;;;;;;;6.47;2.13;;;;;;;15.40;80.33;99346.13;2169450;41;20033;-80
2021/07/14 04:20:16;;;;;;;4.60;2.13;;;;;;;15.47;80.22;99337.31;2161386;41;20106;-80
2021/07/14 04:21:48;;;;;;;4.63;2.33;;;;;;;15.48;80.10;99349.75;2173078;41;20037;-79
2021/07/14 04:23:20;;;;;;;9.38;2.70;;;;;;;15.52;79.81;99351.00;2173445;41;20036;-79
2021/07/14 04:24:53;;;;;;;6.00;2.35;;;;;;;15.50;80.00;99353.06;2178251;40;20039;-79
2021/07/14 04:26:24;;;;;;;8.82;2.40;;;;;;;15.49;79.91;99346.03;2191150;40;20042;-79
2021/07/14 04:27:58;;;;;;;7.40;2.88;;;;;;;15.46;80.15;99341.00;2197869;40;20035;-79
2021/07/14 04:29:32;;;;;;;5.95;2.30;;;;;;;15.44;79.87;99339.34;2198057;40;20032;-81
2021/07/14 04:31:04;;;;;;;10.02;2.50;;;;;;;15.46;80.06;99335.63;2198096;40;20027;-80
2021/07/14 04:32:36;;;;;;;8.02;2.78;;;;;;;15.48;80.01;99329.00;2197896;40;20031;-80
2021/07/14 04:34:08;;;;;;;7.38;3.10;;;;;;;15.45;79.92;99326.69;2198205;40;20051;-80
2021/07/14 04:35:40;;;;;;;6.03;2.42;;;;;;;15.46;80.08;99327.56;2198238;40;20031;-80
2021/07/14 04:37:11;;;;;;;9.65;2.60;;;;;;;15.40;80.05;99319.22;2197860;40;20054;-80
2021/07/14 04:38:43;;;;;;;6.43;2.35;;;;;;;15.36;80.30;99330.56;2197721;40;20039;-81
2021/07/14 04:40:17;;;;;;;11.38;3.03;;;;;;;15.37;80.62;99332.22;2197350;40;20436;-79
2021/07/14 04:41:49;;;;;;;5.70;2.22;;;;;;;15.32;80.49;99335.50;2197900;40;20023;-80
2021/07/14 04:43:21;;;;;;;7.78;1.92;;;;;;;15.29;80.86;99339.41;2197855;40;20038;-79
2021/07/14 04:44:52;;;;;;;6.65;2.70;;;;;;;15.29;80.76;99342.13;2197844;40;20046;-80
2021/07/14 04:46:23;;;;;;;6.30;2.20;;;;;;;15.28;80.92;99339.63;2197830;40;20031;-79
2021/07/14 04:47:55;;;;;;;6.35;2.15;;;;;;;15.27;80.83;99348.72;2197901;40;20039;-80
2021/07/14 04:49:27;;;;;;;8.52;2.85;;;;;;;15.29;80.81;99341.28;2197679;40;20042;-80
2021/07/14 04:50:59;;;;;;;6.82;2.35;;;;;;;15.28;80.74;99342.31;2198106;40;20635;-79
2021/07/14 04:52:29;;;;;;;5.68;2.20;;;;;;;15.30;80.92;99337.56;2197567;40;20553;-79
2021/07/14 04:54:02;;;;;;;8.68;2.47;;;;;;;15.31;80.75;99341.09;2195497;40;20028;-80
2021/07/14 04:55:34;;;;;;;7.35;2.60;;;;;;;15.32;80.88;99340.06;2194755;40;20035;-79
2021/07/14 04:57:06;;;;;;;6.65;2.03;;;;;;;15.31;80.72;99328.44;2194708;40;20039;-80
2021/07/14 04:58:37;;;;;;;8.30;2.40;;;;;;;15.35;80.72;99335.13;2194083;40;20095;-78
2021/07/14 05:00:09;;;;;;;6.07;3.00;;;;;;;15.36;80.59;99326.03;2194932;40;20039;-79
2021/07/14 05:01:41;;;;;;;5.55;3.00;;;;;;;15.38;80.67;99334.75;2195354;40;20044;-79
2021/07/14 05:03:13;;;;;;;8.02;3.35;;;;;;;15.41;80.50;99333.53;2195207;40;20031;-80
2021/07/14 05:04:46;;;;;;;8.20;3.63;;;;;;;15.41;80.54;99331.66;2196429;40;20038;-81
2021/07/14 05:06:19;;;;;;;10.02;4.03;;;;;;;15.50;80.36;99326.13;2199235;40;20031;-79
2021/07/14 05:07:50;;;;;;;4.93;3.22;;;;;;;15.55;80.43;99329.91;2199968;40;20042;-81
2021/07/14 05:09:22;;;;;;;6.57;2.88;;;;;;;15.60;79.83;99326.63;2200292;40;20057;-79
2021/07/14 05:10:55;;;;;;;6.00;2.15;;;;;;;15.70;79.86;99319.03;2201768;40;20382;-81
2021/07/14 05:12:27;;;;;;;9.10;2.35;;;;;;;15.77;79.66;99315.56;2200047;40;20042;-80
2021/07/14 05:13:59;;;;;;;6.65;2.50;;;;;;;15.82;79.44;99315.78;2201975;40;20042;-80
2021/07/14 05:15:30;;;;;;;5.15;2.10;;;;;;;15.84;79.31;99311.91;2199585;40;20050;-79
2021/07/14 05:17:04;;;;;;;4.47;2.10;;;;;;;15.90;78.91;99318.38;2201209;40;20048;-79
2021/07/14 05:18:36;;;;;;;6.55;1.98;;;;;;;15.95;79.02;99318.63;2200438;40;20034;-79
2021/07/14 05:20:09;;;;;;;4.82;2.05;;;;;;;15.99;78.64;99322.56;2200928;40;20027;-82
2021/07/14 05:21:41;;;;;;;9.05;2.88;;;;;;;15.96;78.63;99314.91;2200772;40;20042;-82
2021/07/14 05:23:13;;;;;;;6.70;2.80;;;;;;;15.88;78.89;99328.50;2202064;40;20035;-83
2021/07/14 05:24:45;;;;;;;10.05;2.78;;;;;;;15.85;78.97;99331.63;2190705;40;20027;-81
2021/07/14 05:26:24;;;;;;;6.15;2.95;;;;;;;15.80;79.29;99324.09;2187809;40;20050;-82
2021/07/14 05:27:56;;;;;;;5.85;3.05;;;;;;;15.78;79.34;99323.44;2179145;40;20595;-81
2021/07/14 05:29:27;;;;;;;6.28;3.10;;;;;;;15.74;79.35;99317.63;2173069;41;20045;-82
2021/07/14 05:30:58;;;;;;;10.40;3.72;;;;;;;15.75;79.47;99329.22;2173145;41;20025;-81
2021/07/14 05:32:30;;;;;;;6.40;3.33;;;;;;;15.71;79.64;99318.00;2173556;41;20564;-81
2021/07/14 05:34:11;;;;;;;7.40;2.70;;;;;;;15.72;79.77;99329.63;2172608;40;20129;-81
2021/07/14 05:35:43;;;;;;;6.15;3.60;;;;;;;15.78;79.56;99323.44;2172629;41;20061;-81
2021/07/14 05:37:14;;;;;;;10.25;3.00;;;;;;;15.83;79.30;99328.25;2161014;41;20034;-81
2021/07/14 05:38:46;;;;;;;6.97;3.63;;;;;;;15.85;79.52;99323.53;2160162;41;20057;-80
2021/07/14 05:40:17;;;;;;;8.70;3.30;;;;;;;15.84;79.46;99320.00;2137817;41;20032;-81
2021/07/14 05:41:50;;;;;;;7.72;3.10;;;;;;;15.81;79.19;99311.44;2137701;41;20382;-80
2021/07/14 05:43:22;;;;;;;9.57;3.85;;;;;;;15.83;79.33;99315.59;2140077;41;20039;-84
2021/07/14 05:44:54;;;;;;;6.30;2.80;;;;;;;15.84;79.60;99314.59;2131968;41;20036;-80
2021/07/14 05:46:26;;;;;;;8.00;4.03;;;;;;;15.90;79.44;99315.66;2122071;41;20041;-80
2021/07/14 05:47:58;;;;;;;5.22;2.53;;;;;;;15.92;79.29;99313.63;2141892;41;20043;-83
2021/07/14 05:49:28;;;;;;;4.60;2.53;;;;;;;15.96;79.17;99324.84;2149667;41;20046;-83
2021/07/14 05:51:08;;;;;;;6.80;2.72;;;;;;;16.01;79.03;99325.91;2152839;41;20030;-83
2021/07/14 05:52:49;;;;;;;5.75;3.08;;;;;;;16.08;78.69;99330.50;2149495;41;20035;-82
2021/07/14 05:54:26;;;;;;;5.63;2.40;;;;;;;16.10;78.30;99325.75;2147627;41;20042;-85
2021/07/14 05:56:03;;;;;;;6.43;2.65;;;;;;;16.14;78.00;99333.25;2157244;41;20048;-81
2021/07/14 05:57:39;;;;;;;5.22;1.92;;;;;;;16.17;77.82;99338.25;2158180;41;20109;-80
2021/07/14 05:59:11;;;;;;;5.60;2.10;;;;;;;16.19;77.66;99335.34;2181760;40;20048;-79
2021/07/14 06:00:43;;;;;;;5.18;2.38;;;;;;;16.22;77.36;99340.34;2199208;40;20046;-81
2021/07/14 06:02:17;;;;;;;4.28;2.35;;;;;;;16.27;77.20;99339.75;2203368;40;20023;-83
2021/07/14 06:03:49;;;;;;;9.43;2.63;;;;;;;16.26;77.15;99336.19;2213971;40;20046;-81
2021/07/14 06:05:20;;;;;;;4.68;2.60;;;;;;;16.31;76.80;99339.16;2213721;40;20030;-79
2021/07/14 06:06:52;;;;;;;5.32;2.25;;;;;;;16.31;76.89;99344.53;2215508;40;20056;-79
2021/07/14 06:08:24;;;;;;;6.30;2.28;;;;;;;16.28;76.73;99344.94;2215785;40;20155;-81
2021/07/14 06:09:56;;;;;;;5.97;2.25;;;;;;;16.28;76.84;99342.25;2215533;40;20524;-82
2021/07/14 06:11:28;;;;;;;5.63;2.28;;;;;;;16.32;76.63;99345.38;2215660;40;20029;-78
2021/07/14 06:13:05;;;;;;;5.43;2.25;;;;;;;16.34;76.67;99346.00;2211385;40;20037;-82
2021/07/14 06:14:37;;;;;;;7.72;2.95;;;;;;;16.34;76.31;99344.13;2209358;40;20384;-79
2021/07/14 06:16:10;;;;;;;6.28;2.58;;;;;;;16.36;76.20;99352.03;2203782;40;20042;-82
2021/07/14 06:17:41;;;;;;;4.82;2.30;;;;;;;16.42;75.99;99353.09;2203203;40;20094;-79
2021/07/14 06:19:13;;;;;;;5.07;2.60;;;;;;;16.43;75.88;99339.41;2202921;40;20027;-79
2021/07/14 06:20:43;;;;;;;5.18;2.70;;;;;;;16.45;75.76;99344.59;2203025;40;20389;-81
2021/07/14 06:22:15;;;;;;;5.82;2.88;;;;;;;16.48;75.42;99339.63;2203286;40;20031;-82
2021/07/14 06:23:47;;;;;;;8.05;2.97;;;;;;;16.47;75.43;99342.53;2203316;40;20035;-79
2021/07/14 06:25:19;;;;;;;6.63;2.60;;;;;;;16.44;75.77;99337.53;2212121;40;20561;-81
2021/07/14 06:26:54;;;;;;;6.30;2.72;;;;;;;16.36;76.10;99336.69;2215669;40;20034;-82
2021/07/14 06:28:28;;;;;;;5.63;2.90;;;;;;;16.36;76.03;99343.94;2216592;40;20034;-79
2021/07/14 06:30:00;;;;;;;8.30;3.05;;;;;;;16.35;76.27;99343.09;2216521;40;20034;-81
2021/07/14 06:31:32;;;;;;;6.70;3.08;;;;;;;16.36;76.13;99323.19;2216506;40;20109;-79
2021/07/14 06:33:04;;;;;;;4.57;2.38;;;;;;;16.31;76.30;99320.28;2204247;40;20035;-82
2021/07/14 06:34:36;;;;;;;4.50;2.30;;;;;;;16.32;76.14;99319.25;2204258;40;20054;-79
2021/07/14 06:36:08;;;;;;;7.05;2.50;;;;;;;16.33;76.15;99326.31;2204253;40;20031;-83
2021/07/14 06:37:40;;;;;;;10.10;2.67;;;;;;;16.27;76.24;99318.19;2204398;40;20042;-83
2021/07/14 06:39:12;;;;;;;6.25;2.92;;;;;;;16.25;76.51;99318.34;2204539;40;20046;-81
2021/07/14 06:40:44;;;;;;;7.22;3.05;;;;;;;16.20;76.38;99320.84;2204667;40;20019;-83
2021/07/14 06:42:17;;;;;;;7.68;3.35;;;;;;;16.20;76.43;99324.34;2203435;40;20030;-80
2021/07/14 06:43:50;;;;;;;7.70;3.13;;;;;;;16.29;76.55;99322.31;2199913;40;20050;-80
2021/07/14 06:45:24;;;;;;;6.78;3.45;;;;;;;16.34;76.22;99327.94;2200889;40;20031;-83
2021/07/14 06:46:55;;;;;;;6.10;2.70;;;;;;;16.39;76.06;99324.66;2201114;40;20035;-82
2021/07/14 06:48:27;;;;;;;5.43;2.60;;;;;;;16.47;76.15;99332.59;2201489;40;20031;-81
2021/07/14 06:49:59;;;;;;;5.45;2.25;;;;;;;16.52;75.57;99326.59;2202061;40;20043;-82
2021/07/14 06:51:31;;;;;;;6.22;2.67;;;;;;;16.55;75.61;99322.66;2201818;40;20323;-81
2021/07/14 06:53:04;;;;;;;6.57;2.45;;;;;;;16.54;75.78;99321.81;2201386;40;20338;-82
2021/07/14 06:54:38;;;;;;;7.25;2.47;;;;;;;16.53;75.45;99323.69;2201827;40;20043;-82
2021/07/14 06:56:10;;;;;;;4.00;1.80;;;;;;;16.55;75.54;99334.25;2200668;40;20054;-81
2021/07/14 06:57:44;;;;;;;5.28;2.38;;;;;;;16.61;75.62;99330.78;2200439;40;20285;-80
2021/07/14 06:59:18;;;;;;;4.95;2.33;;;;;;;16.64;75.56;99333.06;2201779;40;20085;-81
2021/07/14 07:00:49;;;;;;;4.18;1.92;;;;;;;16.66;75.16;99331.00;2201227;40;20035;-82
2021/07/14 07:02:21;;;;;;;4.65;2.38;;;;;;;16.71;74.99;99337.66;2203774;40;20111;-82
2021/07/14 07:03:53;;;;;;;5.90;2.67;;;;;;;16.73;75.10;99335.56;2207749;40;20025;-82
2021/07/14 07:05:25;;;;;;;5.25;2.42;;;;;;;16.77;74.64;99328.75;2209684;40;20050;-81
2021/07/14 07:06:56;;;;;;;5.65;2.10;;;;;;;16.82;74.96;99337.91;2209665;40;20330;-82
2021/07/14 07:08:27;;;;;;;11.70;2.50;;;;;;;16.86;74.54;99332.94;2210112;40;20172;-82
2021/07/14 07:09:59;;;;;;;4.00;2.53;;;;;;;16.87;74.53;99334.59;2209566;40;20018;-82
2021/07/14 07:11:34;;;;;;;8.15;2.90;;;;;;;16.87;74.49;99328.34;2210556;40;20034;-78
2021/07/14 07:13:05;;;;;;;5.78;2.63;;;;;;;16.88;74.48;99332.72;2210052;40;20030;-80
2021/07/14 07:14:40;;;;;;;7.75;3.15;;;;;;;16.93;74.69;99330.25;2210161;40;20079;-80
2021/07/14 07:16:12;;;;;;;6.60;3.03;;;;;;;16.98;74.75;99328.63;2209945;40;20058;-79
2021/07/14 07:17:44;;;;;;;4.60;2.28;;;;;;;16.99;74.59;99329.47;2203929;40;20027;-84
2021/07/14 07:19:15;;;;;;;6.65;2.63;;;;;;;16.98;74.72;99339.44;2203856;40;20030;-80
2021/07/14 07:20:46;;;;;;;3.55;1.90;;;;;;;16.96;74.58;99338.81;2204078;40;20019;-80
2021/07/14 07:22:18;;;;;;;5.95;2.42;;;;;;;16.92;74.46;99344.78;2204097;40;20054;-79
2021/07/14 07:23:49;;;;;;;4.80;2.20;;;;;;;16.91;74.55;99346.63;2204132;40;20388;-82
2021/07/14 07:25:20;;;;;;;8.18;2.88;;;;;;;16.87;74.65;99349.94;2204075;40;20033;-80
2021/07/14 07:26:52;;;;;;;7.50;2.83;;;;;;;16.84;74.68;99346.63;2203897;40;20500;-81
2021/07/14 07:28:28;;;;;;;6.82;2.20;;;;;;;16.88;74.54;99352.47;2203940;40;20034;-79
2021/07/14 07:30:01;;;;;;;4.57;1.90;;;;;;;16.90;74.91;99353.09;2204162;40;20039;-80
2021/07/14 07:31:34;;;;;;;4.05;2.22;;;;;;;16.89;74.61;99351.44;2204021;40;20464;-78
2021/07/14 07:33:05;;;;;;;5.25;2.50;;;;;;;16.91;74.55;99351.22;2204032;40;20031;-80
2021/07/14 07:34:36;;;;;;;5.10;2.17;;;;;;;16.92;74.57;99345.59;2204281;40;20035;-79
2021/07/14 07:36:08;;;;;;;5.15;2.25;;;;;;;16.92;74.62;99356.41;2204009;40;20565;-79
2021/07/14 07:37:39;;;;;;;4.00;1.88;;;;;;;16.92;74.59;99347.47;2214965;40;20034;-82
2021/07/14 07:39:11;;;;;;;6.82;2.03;;;;;;;16.92;74.50;99351.00;2213189;40;20605;-79
2021/07/14 07:40:43;;;;;;;5.93;2.40;;;;;;;16.92;74.43;99345.59;2203864;40;20202;-79
2021/07/14 07:42:15;;;;;;;6.40;2.47;;;;;;;16.91;74.35;99343.13;2203923;40;20027;-79
2021/07/14 07:43:48;;;;;;;5.60;2.38;;;;;;;16.82;74.76;99343.31;2213346;40;20041;-81
2021/07/14 07:45:22;;;;;;;4.65;2.20;;;;;;;16.84;74.75;99349.34;2216138;40;20037;-83
2021/07/14 07:46:54;;;;;;;4.90;2.10;;;;;;;16.85;74.55;99352.84;2203760;40;20039;-79
2021/07/14 07:48:26;;;;;;;3.90;2.30;;;;;;;16.86;74.33;99356.41;2203986;40;20038;-82
2021/07/14 07:49:58;;;;;;;6.78;3.35;;;;;;;16.86;74.55;99348.31;2203872;40;20027;-81
2021/07/14 07:51:30;;;;;;;5.45;2.45;;;;;;;16.87;74.32;99348.09;2203904;40;20035;-83
2021/07/14 07:53:01;;;;;;;5.00;1.67;;;;;;;16.89;74.66;99337.94;2203880;40;20045;-82
2021/07/14 07:54:33;;;;;;;7.47;2.80;;;;;;;16.89;74.38;99335.22;2203888;40;20041;-79
2021/07/14 07:56:06;;;;;;;4.80;2.50;;;;;;;16.85;74.53;99342.06;2209233;40;20042;-80
2021/07/14 07:57:38;;;;;;;6.63;2.72;;;;;;;16.89;74.97;99342.47;2209947;40;20293;-79
2021/07/14 07:59:10;;;;;;;6.32;2.58;;;;;;;16.88;74.79;99344.38;2209917;40;20035;-80
2021/07/14 08:00:44;;;;;;;4.85;2.33;;;;;;;16.95;74.94;99339.84;2210089;40;20102;-79
2021/07/14 08:02:16;;;;;;;4.88;2.85;;;;;;;16.98;75.00;99344.00;2209960;40;20399;-79
2021/07/14 08:03:48;;;;;;;6.43;2.90;;;;;;;17.02;74.95;99350.66;2210028;40;20025;-79
2021/07/14 08:05:20;;;;;;;5.25;3.33;;;;;;;17.00;75.19;99344.63;2210374;40;20035;-81
2021/07/14 08:06:52;;;;;;;12.93;3.70;;;;;;;16.99;74.89;99349.19;2210212;40;20042;-81
2021/07/14 08:08:24;;;;;;;6.18;2.22;;;;;;;16.97;75.01;99348.56;2210580;40;20034;-79
2021/07/14 08:09:55;;;;;;;4.97;2.10;;;;;;;16.98;75.20;99347.53;2210524;40;20035;-81
2021/07/14 08:11:26;;;;;;;5.40;2.33;;;;;;;16.97;75.28;99359.38;2209436;40;20034;-80
2021/07/14 08:12:59;;;;;;;4.95;2.35;;;;;;;16.98;75.08;99357.50;2202691;40;20031;-83
2021/07/14 08:14:31;;;;;;;3.47;1.85;;;;;;;17.00;75.26;99348.13;2201100;40;20541;-82
2021/07/14 08:16:05;;;;;;;4.95;2.28;;;;;;;17.03;75.00;99351.47;2201796;40;20046;-83